createdAt,value
2023-02-17T00:05:27.547Z,85.67
2023-02-17T00:11:29.765Z,81.33
2023-02-17T00:17:32.841Z,79.00
2023-02-17T00:23:35.272Z,79.00
2023-02-17T00:29:37.400Z,86.33
2023-02-17T00:35:41.196Z,81.67
2023-02-17T00:41:44.901Z,79.00
2023-02-17T00:47:48.044Z,81.33
2023-02-17T00:53:52.638Z,88.00
2023-02-17T00:59:59.260Z,83.33
2023-02-17T01:06:07.954Z,90.00
2023-02-17T01:12:12.458Z,97.00
2023-02-17T01:18:19.378Z,85.67
2023-02-17T01:24:21.594Z,94.00
2023-02-17T01:30:24.331Z,92.33
2023-02-17T01:36:27.407Z,100.67
2023-02-17T01:42:30.438Z,95.33
2023-02-17T01:48:41.519Z,87.33
2023-02-17T01:54:48.942Z,84.00
2023-02-17T02:00:53.636Z,92.33
2023-02-17T02:06:56.084Z,92.33
2023-02-17T02:12:58.238Z,92.67
2023-02-17T02:19:17.205Z,88.33
2023-02-17T02:25:45.140Z,91.33
2023-02-17T02:31:56.245Z,98.50
2023-02-17T02:38:16.854Z,91.67
2023-02-17T02:44:21.388Z,88.67
2023-02-17T02:50:45.835Z,93.33
2023-02-17T02:57:03.310Z,94.00
2023-02-17T03:03:28.996Z,99.33
2023-02-17T03:09:32.172Z,89.33
2023-02-17T03:15:35.659Z,96.67
2023-02-17T03:21:43.759Z,94.33
2023-02-17T03:27:46.018Z,97.67
2023-02-17T03:33:50.060Z,94.33
2023-02-17T03:39:52.349Z,93.00
2023-02-17T03:45:55.114Z,96.67
2023-02-17T03:51:58.479Z,99.67
2023-02-17T03:58:00.747Z,96.00
2023-02-17T04:04:03.775Z,92.33
2023-02-17T04:10:09.516Z,96.33
2023-02-17T04:16:13.789Z,93.00
2023-02-17T04:22:15.887Z,90.00
2023-02-17T04:28:21.551Z,94.00
2023-02-17T04:34:23.752Z,101.00
2023-02-17T04:40:29.427Z,93.00
2023-02-17T04:46:31.568Z,93.33
2023-02-17T04:52:34.000Z,97.67
2023-02-17T04:58:36.512Z,98.33
2023-02-17T05:18:22.422Z,99.67
2023-02-17T05:25:10.194Z,92.33
2023-02-17T05:39:07.002Z,94.67
2023-02-17T05:46:13.426Z,85.67
2023-02-17T05:53:16.113Z,101.67
2023-02-17T06:12:45.996Z,105.00
2023-02-17T06:31:54.361Z,102.00
2023-02-17T06:38:12.875Z,105.00
2023-02-17T06:44:19.027Z,100.67
2023-02-17T06:50:37.948Z,103.33
2023-02-17T06:56:48.780Z,96.00
2023-02-17T07:02:53.051Z,99.67
2023-02-17T07:08:57.924Z,100.00
2023-02-17T07:15:06.556Z,97.67
2023-02-17T07:28:09.179Z,111.00
2023-02-17T07:35:31.471Z,103.00
2023-02-17T08:02:28.303Z,110.33
2023-02-17T08:09:22.753Z,100.00
2023-02-17T08:15:55.846Z,101.33
2023-02-17T08:22:13.053Z,104.67
2023-02-17T08:35:42.410Z,101.00
2023-02-17T08:55:16.276Z,107.00
2023-02-17T09:01:26.516Z,105.67
2023-02-17T09:21:28.109Z,105.33
2023-02-17T09:42:17.503Z,103.67
2023-02-17T09:48:55.770Z,102.00
2023-02-17T10:10:01.467Z,101.50
2023-02-17T10:30:17.243Z,94.00
2023-02-17T10:51:32.977Z,100.50
2023-02-17T11:12:58.404Z,88.75
2023-02-17T11:20:10.864Z,87.75
2023-02-17T11:54:54.369Z,84.25
2023-02-17T12:01:56.925Z,85.75
2023-02-17T12:08:58.729Z,90.00
2023-02-17T12:22:33.736Z,83.25
2023-02-17T12:37:10.985Z,80.75
2023-02-17T12:43:53.291Z,82.25
2023-02-17T13:05:18.823Z,72.50
2023-02-17T13:11:53.629Z,74.50
2023-02-17T13:25:35.687Z,71.25
2023-02-17T13:32:29.344Z,75.50
2023-02-17T13:39:53.428Z,68.00
2023-02-17T13:46:13.724Z,77.00
2023-02-17T13:52:45.288Z,67.75
2023-02-17T13:59:01.244Z,60.00
2023-02-17T14:05:46.328Z,58.25
2023-02-17T14:11:56.701Z,57.75
2023-02-17T14:18:18.423Z,45.50
2023-02-17T14:24:47.282Z,59.33
2023-02-17T14:31:01.208Z,61.75
2023-02-17T14:43:58.351Z,60.75
2023-02-17T14:50:38.986Z,64.50
2023-02-17T15:04:42.549Z,53.75
2023-02-17T15:11:35.105Z,60.25
2023-02-17T15:17:52.580Z,54.75
2023-02-17T15:24:40.118Z,64.00
2023-02-17T15:31:35.741Z,65.25
2023-02-17T15:37:44.324Z,61.75
2023-02-17T16:24:17.149Z,71.50
2023-02-17T16:43:45.077Z,73.25
2023-02-17T16:49:54.183Z,80.25
2023-02-17T16:56:22.472Z,82.25
2023-02-17T17:02:35.744Z,89.25
2023-02-17T17:15:12.638Z,87.75
2023-02-17T17:21:30.786Z,84.50
2023-02-17T17:27:49.544Z,85.75
2023-02-17T17:34:04.592Z,86.50
2023-02-17T17:41:00.419Z,82.50
2023-02-17T17:54:20.949Z,88.25
2023-02-17T18:00:46.547Z,85.75
2023-02-17T18:13:44.630Z,85.75
2023-02-17T18:20:31.330Z,84.75
2023-02-17T18:33:30.067Z,78.75
2023-02-17T18:53:46.973Z,86.00
2023-02-17T19:00:11.257Z,80.00
2023-02-17T19:06:29.364Z,82.00
2023-02-17T19:12:50.653Z,74.25
2023-02-17T19:19:48.470Z,71.50
2023-02-17T19:26:35.906Z,75.50
2023-02-17T19:33:03.906Z,74.25
2023-02-17T19:40:08.594Z,64.25
2023-02-17T20:00:08.417Z,61.50
2023-02-17T20:13:08.840Z,59.75
2023-02-17T20:19:29.496Z,57.75
2023-02-17T20:26:16.712Z,60.00
2023-02-17T20:32:46.345Z,55.75
2023-02-17T20:38:53.186Z,61.25
2023-02-17T20:45:36.947Z,63.25
2023-02-17T20:52:03.402Z,62.75
2023-02-17T20:58:35.261Z,64.75
2023-02-17T21:04:43.160Z,72.25
2023-02-17T21:11:04.562Z,70.00
2023-02-17T21:17:15.666Z,70.00
2023-02-17T21:23:53.061Z,67.00
2023-02-17T21:30:31.138Z,68.50
2023-02-17T21:36:46.596Z,62.75
2023-02-17T21:43:20.198Z,66.50
2023-02-17T21:49:39.657Z,48.50
2023-02-17T21:56:24.498Z,62.25
2023-02-17T22:03:01.024Z,57.50
2023-02-17T22:09:38.011Z,65.50
2023-02-17T22:16:05.737Z,62.50
2023-02-17T22:22:25.622Z,75.50
2023-02-17T22:28:58.720Z,57.25
2023-02-17T22:35:18.242Z,61.00
2023-02-17T22:41:30.028Z,63.25
2023-02-17T23:06:47.239Z,56.75
2023-02-17T23:19:16.769Z,54.75
2023-02-17T23:25:34.919Z,63.00
2023-02-17T23:44:59.101Z,44.25
2023-02-17T23:51:07.736Z,48.75
2023-02-17T23:57:13.774Z,50.75
